Longview, WA

5:42 PM PDT on October 24, 2014 (GMT -0700)
Eufaula Heights | Change Station
CLOSE
Current Station
Personal Weather Station
Location: Longview, WA
Elevation: 740 ft
Nearby Weather Stations

Elev 740 ft 46.21 °N, 123.05 °W | Updated 1 second ago

Rain
Rain
51.0 °F
Feels Like 51.0 °F
N
2.0
Wind Variable Wind from North
Gusts 9.0 mph

Today
High -- | Low -- °F
--% Chance of Precip.
Yesterday
High -- | Low -- °F
Precip. -- in
7:41 AM 6:10 PM
New Moon, 1% visible
Pressure 29.86 in
Visibility 9.0 miles
Clouds Few 5000 ft
Scattered Clouds 8000 ft
Overcast 9000 ft
Dew Point 50 °F
Humidity 96%
Rainfall 0.09 in
Snow Depth Not available.
UV 0 out of 12
Pollen .40 out of 12
Air Quality Not available.
Flu Activity Sporadic
METAR KKLS 250035Z AUTO 36004KT 9SM FEW050 SCT080 OVC090 12/09 A2986 RMK AO1 P0001

More Conditions Fewer Conditions

Pressure 29.86 in
Visibility 9.0 miles
Clouds Few 5000 ft
Scattered Clouds 8000 ft
Overcast 9000 ft
Dew Point 50 °F
Humidity 96%
Rainfall 0.09 in
Snow Depth Not available.
UV 0 out of 12
Pollen .40 out of 12
Air Quality Not available.
Flu Activity Sporadic
METAR KKLS 250035Z AUTO 36004KT 9SM FEW050 SCT080 OVC090 12/09 A2986 RMK AO1 P0001

More Conditions Fewer Conditions

10-Day Weather Forecast

Almanac

Astronomy

Oct. 24, 2014 Rise Set
Actual Time 7:41 AM PDT 6:10 PM PDT
Civil Twilight 7:11 AM PDT 6:40 PM PDT
Nautical Twilight 6:36 AM PDT 7:15 PM PDT
Astronomical Twilight 6:01 AM PDT 7:50 PM PDT
Moon 8:28 AM PDT (10/24) 6:51 PM PDT (10/24)
Length of Visible Light 11h 29m
Length of Day
10h 28m
Tomorrow will be 3m 3s shorter.
New Moon, 1% of the Moon is Illuminated
Today
New Moon
Oct 30
First Quarter
Nov 6
Full
Nov 14
Last Quarter
Nov 22
New

Today's Extremes

State Highs State Lows

Community

WunderPhotos

Upload Photos

1,764,735 photos uploaded!

WunderBlogs® & News

Nearby

Snow Depth

Station Depth Elevation
Swift Creek 1 in 3770 ft
Spirit Lake 0 in 3120 ft
June Lake 0 in 3340 ft
Spencer Meadow 0 in 3400 ft
Surprise Lakes 1 in 4250 ft

Earthquake Activity

City Distance Mag. Time & Date
No recent earthquake activity has been reported nearby.
Minimum magnitude displayed is 2.5.

Coastal Water Temperatures

Place Temperature
Astoria, OR 60.1 °F
Westport, WA 57.9 °F

Nearby Weather Stations